createdAt,value
2024-04-12T00:00:50.581Z,83.12
2024-04-12T00:04:54.347Z,84.25
2024-04-12T00:08:56.250Z,83.31
2024-04-12T00:12:58.253Z,86.59
2024-04-12T00:17:00.644Z,82.81
2024-04-12T00:21:03.489Z,83.05
2024-04-12T00:25:06.137Z,84.52
2024-04-12T00:29:09.414Z,85.89
2024-04-12T00:33:11.679Z,83.68
2024-04-12T00:37:17.306Z,87.71
2024-04-12T00:41:24.082Z,86.40
2024-04-12T00:45:40.785Z,84.18
2024-04-12T00:49:52.947Z,82.93
2024-04-12T00:54:00.014Z,83.57
2024-04-12T00:58:02.209Z,83.34
2024-04-12T01:02:09.863Z,81.74
2024-04-12T01:06:12.004Z,78.99
2024-04-12T01:10:13.812Z,78.77
2024-04-12T01:14:15.798Z,79.41
2024-04-12T01:18:18.295Z,80.20
2024-04-12T01:22:20.285Z,83.50
2024-04-12T01:26:24.814Z,85.79
2024-04-12T01:30:26.946Z,81.38
2024-04-12T01:34:31.251Z,80.46
2024-04-12T01:38:38.215Z,84.14
2024-04-12T01:42:44.250Z,84.16
2024-04-12T01:46:49.373Z,83.08
2024-04-12T01:50:52.652Z,81.89
2024-04-12T01:55:06.813Z,81.50
2024-04-12T01:59:08.780Z,81.81
2024-04-12T02:03:11.998Z,83.80
2024-04-12T02:07:15.533Z,82.15
2024-04-12T02:11:24.324Z,82.67
2024-04-12T02:15:29.519Z,80.03
2024-04-12T02:19:31.892Z,81.28
2024-04-12T02:23:34.747Z,80.69
2024-04-12T02:27:36.868Z,79.46
2024-04-12T02:31:38.832Z,78.81
2024-04-12T02:35:42.793Z,83.39
2024-04-12T02:39:44.616Z,82.73
2024-04-12T02:43:53.941Z,84.45
2024-04-12T02:47:56.344Z,82.64
2024-04-12T02:52:01.096Z,81.30
2024-04-12T02:56:13.581Z,80.51
2024-04-12T03:00:24.481Z,78.54
2024-04-12T03:04:26.557Z,78.84
2024-04-12T03:08:33.706Z,79.54
2024-04-12T03:12:37.331Z,79.42
2024-04-12T03:16:41.898Z,81.70
2024-04-12T03:20:44.020Z,81.88
2024-04-12T03:24:45.965Z,80.27
2024-04-12T03:28:47.827Z,79.79
2024-04-12T03:32:49.739Z,81.22
2024-04-12T03:36:51.546Z,80.42
2024-04-12T03:40:59.877Z,81.06
2024-04-12T03:45:13.994Z,80.36
2024-04-12T03:49:16.088Z,82.65
2024-04-12T03:53:17.880Z,80.95
2024-04-12T03:57:20.127Z,81.46
2024-04-12T04:01:22.141Z,81.71
2024-04-12T04:05:27.457Z,80.96
2024-04-12T04:09:29.542Z,78.00
2024-04-12T04:13:31.411Z,79.03
2024-04-12T04:17:34.361Z,81.76
2024-04-12T04:21:39.333Z,81.56
2024-04-12T04:25:41.235Z,81.88
2024-04-12T04:29:46.055Z,80.23
2024-04-12T04:33:48.022Z,81.88
2024-04-12T04:37:53.621Z,80.93
2024-04-12T04:41:55.569Z,80.70
2024-04-12T04:46:00.492Z,78.57
2024-04-12T04:50:02.651Z,77.61
2024-04-12T04:54:04.771Z,82.57
2024-04-12T04:58:09.978Z,80.96
2024-04-12T05:02:11.841Z,79.03
2024-04-12T05:06:13.938Z,78.55
2024-04-12T05:10:16.872Z,80.19
2024-04-12T05:14:37.396Z,79.83
2024-04-12T05:18:39.306Z,81.70
2024-04-12T05:22:43.268Z,79.92
2024-04-12T05:26:46.541Z,79.11
2024-04-12T05:30:52.326Z,80.84
2024-04-12T05:34:54.834Z,84.00
2024-04-12T05:38:59.533Z,81.15
2024-04-12T05:43:01.984Z,85.93
2024-04-12T05:47:08.458Z,82.05
2024-04-12T05:51:10.833Z,82.60
2024-04-12T05:55:15.661Z,82.72
2024-04-12T05:59:17.706Z,84.02
2024-04-12T06:03:19.552Z,80.13
2024-04-12T06:07:21.500Z,77.64
2024-04-12T06:11:23.968Z,80.30
2024-04-12T06:15:29.433Z,81.60
2024-04-12T06:19:38.229Z,77.92
2024-04-12T06:23:40.069Z,81.78
2024-04-12T06:27:43.960Z,86.20
2024-04-12T06:31:47.039Z,81.70
2024-04-12T06:35:50.697Z,80.87
2024-04-12T06:39:56.998Z,85.46
2024-04-12T06:43:58.997Z,82.41
2024-04-12T06:48:04.952Z,82.04
2024-04-12T06:52:13.405Z,79.26
2024-04-12T06:56:17.933Z,80.86
2024-04-12T07:00:21.765Z,82.55
2024-04-12T07:04:23.820Z,78.16
2024-04-12T07:08:28.443Z,77.75
2024-04-12T07:12:32.734Z,78.23
2024-04-12T07:16:37.000Z,78.88
2024-04-12T07:20:41.584Z,83.24
2024-04-12T07:24:43.494Z,85.38
2024-04-12T07:28:45.534Z,85.11
2024-04-12T07:32:47.718Z,84.58
2024-04-12T07:36:49.525Z,86.72
2024-04-12T07:40:54.155Z,83.98
2024-04-12T07:44:57.763Z,84.38
2024-04-12T07:49:00.371Z,82.81
2024-04-12T07:53:11.658Z,80.53
2024-04-12T07:57:16.287Z,82.04
2024-04-12T08:01:19.191Z,81.97
2024-04-12T08:05:26.299Z,82.50
2024-04-12T08:09:46.151Z,78.07
2024-04-12T08:13:51.725Z,80.66
2024-04-12T08:17:56.969Z,81.65
2024-04-12T08:21:58.841Z,80.60
2024-04-12T08:26:11.187Z,79.55
2024-04-12T08:30:21.388Z,76.68
2024-04-12T08:34:25.847Z,76.01
2024-04-12T08:38:27.785Z,78.27
2024-04-12T08:42:33.809Z,75.34
2024-04-12T08:46:36.970Z,75.38
2024-04-12T08:50:41.055Z,75.33
2024-04-12T08:54:44.387Z,73.34
2024-04-12T08:58:53.553Z,70.68
2024-04-12T09:03:05.778Z,71.39
2024-04-12T09:07:13.430Z,70.57
2024-04-12T09:11:15.506Z,72.54
2024-04-12T09:15:28.681Z,67.31
2024-04-12T09:19:30.813Z,67.99
2024-04-12T09:23:35.889Z,65.48
2024-04-12T09:27:45.230Z,64.77
2024-04-12T09:32:06.678Z,68.58
2024-04-12T09:36:15.452Z,66.68
2024-04-12T09:40:25.949Z,68.45
2024-04-12T09:44:28.916Z,65.75
2024-04-12T09:48:50.354Z,64.91
2024-04-12T09:53:10.946Z,63.61
2024-04-12T09:57:32.598Z,64.84
2024-04-12T10:01:56.507Z,64.92
2024-04-12T10:06:17.596Z,62.30
2024-04-12T10:10:39.360Z,61.50
2024-04-12T10:15:00.529Z,61.73
2024-04-12T10:19:29.070Z,62.07
2024-04-12T10:23:49.746Z,58.71
2024-04-12T10:28:11.923Z,59.89
2024-04-12T10:32:33.183Z,61.55
2024-04-12T10:36:54.154Z,59.58
2024-04-12T10:40:59.412Z,60.92
2024-04-12T10:45:03.289Z,58.44
2024-04-12T10:49:06.860Z,57.71
2024-04-12T10:53:08.747Z,57.58
2024-04-12T10:57:13.442Z,56.97
2024-04-12T11:01:17.800Z,58.01
2024-04-12T11:05:19.917Z,57.33
2024-04-12T11:09:31.474Z,56.69
2024-04-12T11:13:37.077Z,56.44
2024-04-12T11:18:00.226Z,56.62
2024-04-12T11:22:20.599Z,55.88
2024-04-12T11:26:41.562Z,59.35
2024-04-12T11:31:03.047Z,59.18
2024-04-12T11:35:06.542Z,58.91
2024-04-12T11:39:26.661Z,56.06
2024-04-12T11:43:28.572Z,58.11
2024-04-12T11:47:30.557Z,60.94
2024-04-12T11:51:34.840Z,59.31
2024-04-12T11:55:36.832Z,59.57
2024-04-12T11:59:38.822Z,59.23
2024-04-12T12:03:40.813Z,59.08
2024-04-12T12:07:46.170Z,58.17
2024-04-12T12:11:50.796Z,57.81
2024-04-12T12:15:53.197Z,56.94
2024-04-12T12:19:55.185Z,59.50
2024-04-12T12:23:57.695Z,57.93
2024-04-12T12:27:59.455Z,60.54
2024-04-12T12:32:02.548Z,58.56
2024-04-12T12:36:07.280Z,57.28
2024-04-12T12:40:14.689Z,59.47
2024-04-12T12:44:24.075Z,60.86
2024-04-12T12:48:29.470Z,59.89
2024-04-12T12:52:33.608Z,58.83
2024-04-12T12:56:36.353Z,59.00
2024-04-12T13:00:41.210Z,60.03
2024-04-12T13:04:49.938Z,60.84
2024-04-12T13:08:51.846Z,60.66
2024-04-12T13:12:53.807Z,59.33
2024-04-12T13:16:55.997Z,61.51
2024-04-12T13:20:58.625Z,59.46
2024-04-12T13:25:00.510Z,62.09
2024-04-12T13:29:02.420Z,59.89
2024-04-12T13:33:04.565Z,60.21
2024-04-12T13:37:09.514Z,61.01
2024-04-12T13:41:11.978Z,63.05
2024-04-12T13:45:32.479Z,62.35
2024-04-12T13:49:53.010Z,61.27
2024-04-12T13:53:54.951Z,60.73
2024-04-12T13:57:56.900Z,61.00
2024-04-12T14:02:00.419Z,62.36
2024-04-12T14:06:02.669Z,63.93
2024-04-12T14:10:07.717Z,66.12
2024-04-12T14:14:10.749Z,64.60
2024-04-12T14:18:12.671Z,64.97
2024-04-12T14:22:14.456Z,64.45
2024-04-12T14:26:16.502Z,64.94
2024-04-12T14:30:22.291Z,64.82
2024-04-12T14:34:25.906Z,65.19
2024-04-12T14:38:30.508Z,67.38
2024-04-12T14:42:33.679Z,65.01
2024-04-12T14:46:39.728Z,65.86
2024-04-12T14:50:42.818Z,63.08
2024-04-12T14:54:44.825Z,65.31
2024-04-12T14:58:46.545Z,67.06
2024-04-12T15:02:48.585Z,65.67
2024-04-12T15:07:09.912Z,66.06
2024-04-12T15:11:30.048Z,65.74
2024-04-12T15:15:51.166Z,67.27
2024-04-12T15:20:11.820Z,63.03
2024-04-12T15:24:32.242Z,65.03
2024-04-12T15:28:52.647Z,62.82
2024-04-12T15:33:13.514Z,62.53
2024-04-12T15:37:34.437Z,62.09
2024-04-12T15:41:54.841Z,60.43
2024-04-12T15:46:15.378Z,59.60
2024-04-12T15:50:26.210Z,59.39
2024-04-12T15:54:28.043Z,60.57
2024-04-12T15:58:48.995Z,58.17
2024-04-12T16:03:12.573Z,56.95
2024-04-12T16:07:33.687Z,58.90
2024-04-12T16:11:35.506Z,61.61
2024-04-12T16:15:37.339Z,57.81
2024-04-12T16:19:41.239Z,59.29
2024-04-12T16:23:42.992Z,61.27
2024-04-12T16:27:44.958Z,58.69
2024-04-12T16:31:47.107Z,57.86
2024-04-12T16:35:49.111Z,59.33
2024-04-12T16:39:52.310Z,57.77
2024-04-12T16:43:57.249Z,59.28
2024-04-12T16:48:01.672Z,62.19
2024-04-12T16:52:04.004Z,59.52
2024-04-12T16:56:05.995Z,59.62
2024-04-12T17:00:08.398Z,58.98
2024-04-12T17:04:11.316Z,61.01
2024-04-12T17:08:13.714Z,59.99
2024-04-12T17:12:15.494Z,58.37
2024-04-12T17:16:18.350Z,59.87
2024-04-12T17:20:20.730Z,62.52
2024-04-12T17:24:23.549Z,59.47
2024-04-12T17:28:25.401Z,61.07
2024-04-12T17:32:35.195Z,63.51
2024-04-12T17:36:37.188Z,65.39
2024-04-12T17:40:39.047Z,66.04
2024-04-12T17:44:41.679Z,66.62
2024-04-12T17:48:43.665Z,68.97
2024-04-12T17:52:46.360Z,69.90
2024-04-12T17:56:48.243Z,72.42
2024-04-12T18:01:03.091Z,71.12
2024-04-12T18:05:07.103Z,67.57
2024-04-12T18:09:10.412Z,68.79
2024-04-12T18:13:12.245Z,70.76
2024-04-12T18:17:14.367Z,71.47
2024-04-12T18:21:17.540Z,71.00
2024-04-12T18:25:19.925Z,71.00
2024-04-12T18:29:21.898Z,70.31
2024-04-12T18:33:24.138Z,69.52
2024-04-12T18:37:44.634Z,70.04
2024-04-12T18:42:05.636Z,71.74
2024-04-12T18:46:07.838Z,72.09
2024-04-12T18:50:11.002Z,70.89
2024-04-12T18:54:12.802Z,70.60
2024-04-12T18:58:15.294Z,71.98
2024-04-12T19:02:17.179Z,70.06
2024-04-12T19:06:19.687Z,69.42
2024-04-12T19:10:21.637Z,69.21
2024-04-12T19:14:25.455Z,69.50
2024-04-12T19:18:30.451Z,68.09
2024-04-12T19:22:32.500Z,69.29
2024-04-12T19:26:37.387Z,67.81
2024-04-12T19:30:44.350Z,69.72
2024-04-12T19:34:46.500Z,68.21
2024-04-12T19:38:48.328Z,66.92
2024-04-12T19:42:50.099Z,67.05
2024-04-12T19:46:51.893Z,67.96
2024-04-12T19:50:55.884Z,68.49
2024-04-12T19:54:58.494Z,71.11
2024-04-12T19:59:00.396Z,67.35
2024-04-12T20:03:03.033Z,65.63
2024-04-12T20:07:05.582Z,68.10
2024-04-12T20:11:08.299Z,66.13
2024-04-12T20:15:14.640Z,65.95
2024-04-12T20:19:16.834Z,66.87
2024-04-12T20:23:18.644Z,70.26
2024-04-12T20:27:20.793Z,68.77
2024-04-12T20:31:37.503Z,70.33
2024-04-12T20:35:49.000Z,69.59
2024-04-12T20:39:50.899Z,72.33
2024-04-12T20:43:52.625Z,70.28
2024-04-12T20:47:54.570Z,72.35
2024-04-12T20:51:57.046Z,70.12
2024-04-12T20:56:00.630Z,67.01
2024-04-12T21:00:02.522Z,67.19
2024-04-12T21:04:04.550Z,66.85
2024-04-12T21:08:07.073Z,67.75
2024-04-12T21:12:10.119Z,67.82
2024-04-12T21:16:12.017Z,69.88
2024-04-12T21:20:16.494Z,69.57
2024-04-12T21:24:18.518Z,67.61
2024-04-12T21:28:20.947Z,67.09
2024-04-12T21:32:23.558Z,66.81
2024-04-12T21:36:26.534Z,65.60
2024-04-12T21:40:28.457Z,65.67
2024-04-12T21:44:31.093Z,65.04
2024-04-12T21:48:33.357Z,66.71
2024-04-12T21:52:35.110Z,68.04
2024-04-12T21:56:36.777Z,67.79
2024-04-12T22:00:39.725Z,66.79
2024-04-12T22:04:41.721Z,66.40
2024-04-12T22:08:44.457Z,66.84
2024-04-12T22:12:46.400Z,65.14
2024-04-12T22:16:48.194Z,67.72
2024-04-12T22:21:02.350Z,66.58
2024-04-12T22:25:06.049Z,65.62
2024-04-12T22:29:07.979Z,65.94
2024-04-12T22:33:10.014Z,66.37
2024-04-12T22:37:13.981Z,64.45
2024-04-12T22:41:15.881Z,67.98
2024-04-12T22:45:17.632Z,67.13
2024-04-12T22:49:20.738Z,65.73
2024-04-12T22:53:22.740Z,66.80
2024-04-12T22:57:24.661Z,63.66
2024-04-12T23:01:29.551Z,66.96
2024-04-12T23:05:33.554Z,67.47
2024-04-12T23:09:35.747Z,65.10
2024-04-12T23:13:38.633Z,67.64
2024-04-12T23:17:40.900Z,68.97
2024-04-12T23:21:42.808Z,67.16
2024-04-12T23:25:44.559Z,69.60
2024-04-12T23:29:46.488Z,67.08
2024-04-12T23:33:49.288Z,64.40
2024-04-12T23:37:51.165Z,66.96
2024-04-12T23:41:52.930Z,68.18
2024-04-12T23:45:54.758Z,65.21
2024-04-12T23:49:59.328Z,66.78
2024-04-12T23:54:03.448Z,66.15
2024-04-12T23:58:05.896Z,70.07
